createdAt,value
2022-08-21T00:03:13.174Z,4.38
2022-08-21T00:08:16.235Z,4.40
2022-08-21T00:13:21.030Z,9.77
2022-08-21T00:18:25.367Z,4.82
2022-08-21T00:23:28.199Z,10.20
2022-08-21T00:28:31.303Z,7.25
2022-08-21T00:33:35.012Z,3.85
2022-08-21T00:38:38.196Z,5.07
2022-08-21T00:43:41.487Z,6.38
2022-08-21T00:48:44.285Z,5.43
2022-08-21T00:53:51.743Z,5.05
2022-08-21T00:58:59.335Z,6.75
2022-08-21T01:04:02.626Z,4.32
2022-08-21T01:09:05.751Z,6.15
2022-08-21T01:14:08.772Z,5.97
2022-08-21T01:19:12.907Z,5.60
2022-08-21T01:24:15.994Z,5.57
2022-08-21T01:29:44.420Z,7.43
2022-08-21T01:34:50.188Z,6.75
2022-08-21T01:39:53.254Z,5.55
2022-08-21T01:44:56.323Z,8.27
2022-08-21T01:49:59.423Z,7.28
2022-08-21T01:55:04.037Z,5.90
2022-08-21T02:00:11.948Z,6.45
2022-08-21T02:05:14.795Z,7.38
2022-08-21T02:10:29.115Z,7.03
2022-08-21T02:15:32.441Z,5.90
2022-08-21T02:20:55.742Z,6.05
2022-08-21T02:26:03.035Z,8.85
2022-08-21T02:31:07.891Z,8.77
2022-08-21T02:36:12.392Z,10.20
2022-08-21T02:41:21.854Z,9.63
2022-08-21T02:46:24.891Z,8.53
2022-08-21T02:51:27.833Z,8.60
2022-08-21T02:56:31.651Z,8.70
2022-08-21T03:01:34.801Z,10.40
2022-08-21T03:06:37.891Z,7.53
2022-08-21T03:11:40.758Z,8.38
2022-08-21T03:16:43.534Z,7.72
2022-08-21T03:21:46.589Z,9.60
2022-08-21T03:26:50.036Z,8.05
2022-08-21T03:31:55.112Z,8.43
2022-08-21T03:36:57.972Z,9.10
2022-08-21T03:42:01.089Z,8.70
2022-08-21T03:47:05.545Z,8.45
2022-08-21T03:52:08.438Z,8.90
2022-08-21T03:57:12.054Z,9.13
2022-08-21T04:02:19.331Z,9.63
2022-08-21T04:07:22.292Z,10.02
2022-08-21T04:12:25.252Z,9.07
2022-08-21T04:17:28.214Z,7.57
2022-08-21T04:22:32.472Z,8.43
2022-08-21T04:27:35.979Z,9.15
2022-08-21T04:32:42.701Z,9.55
2022-08-21T04:37:45.639Z,9.93
2022-08-21T04:42:51.379Z,9.70
2022-08-21T04:47:59.643Z,10.85
2022-08-21T04:53:02.599Z,8.98
2022-08-21T04:58:10.023Z,8.10
2022-08-21T05:03:15.046Z,8.63
2022-08-21T05:08:22.528Z,8.45
2022-08-21T05:13:25.552Z,6.93
2022-08-21T05:18:28.469Z,7.35
2022-08-21T05:23:33.582Z,6.68
2022-08-21T05:28:36.609Z,6.35
2022-08-21T05:33:39.844Z,6.50
2022-08-21T05:38:47.702Z,8.35
2022-08-21T05:43:50.841Z,6.25
2022-08-21T05:48:53.688Z,5.18
2022-08-21T05:53:56.420Z,5.07
2022-08-21T05:58:59.362Z,7.78
2022-08-21T06:04:02.507Z,5.47
2022-08-21T06:09:06.590Z,4.97
2022-08-21T06:14:09.369Z,5.13
2022-08-21T06:19:12.771Z,6.97
2022-08-21T06:24:16.232Z,5.60
2022-08-21T06:29:20.776Z,6.10
2022-08-21T06:34:23.794Z,5.22
2022-08-21T06:39:30.577Z,5.45
2022-08-21T06:44:33.717Z,4.68
2022-08-21T06:49:37.690Z,5.63
2022-08-21T06:54:42.120Z,4.30
2022-08-21T06:59:44.848Z,5.07
2022-08-21T07:04:47.590Z,4.75
2022-08-21T07:09:50.369Z,4.82
2022-08-21T07:14:53.226Z,7.82
2022-08-21T07:19:56.142Z,6.28
2022-08-21T07:24:58.943Z,4.38
2022-08-21T07:30:01.845Z,3.88
2022-08-21T07:35:05.263Z,5.97
2022-08-21T07:40:09.071Z,4.53
2022-08-21T07:45:13.161Z,4.55
2022-08-21T07:50:16.963Z,4.15
2022-08-21T07:55:22.659Z,6.13
2022-08-21T08:00:28.708Z,5.68
2022-08-21T08:05:32.953Z,8.85
2022-08-21T08:10:36.825Z,5.93
2022-08-21T08:15:39.619Z,5.38
2022-08-21T08:20:42.614Z,5.78
2022-08-21T08:25:46.084Z,5.95
2022-08-21T08:30:50.249Z,4.95
2022-08-21T08:35:53.284Z,5.50
2022-08-21T08:41:13.519Z,4.50
2022-08-21T08:46:20.221Z,6.28
2022-08-21T08:51:34.009Z,5.30
2022-08-21T08:56:37.355Z,5.68
2022-08-21T09:01:40.306Z,6.30
2022-08-21T09:07:26.985Z,6.70
2022-08-21T09:12:40.990Z,7.85
2022-08-21T09:18:11.147Z,7.15
2022-08-21T09:23:51.267Z,6.15
2022-08-21T09:28:59.109Z,5.53
2022-08-21T09:34:10.145Z,5.85
2022-08-21T09:39:31.319Z,9.00
2022-08-21T09:44:41.568Z,5.47
2022-08-21T09:49:45.134Z,5.80
2022-08-21T09:54:55.453Z,5.03
2022-08-21T10:00:23.992Z,5.65
2022-08-21T10:05:28.334Z,6.00
2022-08-21T10:10:37.530Z,6.07
2022-08-21T10:21:26.700Z,4.72
2022-08-21T10:26:37.254Z,5.80
2022-08-21T10:32:03.887Z,6.07
2022-08-21T10:37:37.399Z,6.28
2022-08-21T10:42:58.724Z,5.60
2022-08-21T10:48:09.084Z,7.05
2022-08-21T10:53:35.723Z,6.57
2022-08-21T10:58:50.884Z,4.95
2022-08-21T11:04:10.126Z,6.53
2022-08-21T11:09:18.585Z,5.28
2022-08-21T11:14:50.338Z,5.88
2022-08-21T11:20:39.137Z,5.63
2022-08-21T11:25:48.216Z,5.15
2022-08-21T11:31:45.272Z,5.33
2022-08-21T11:37:39.083Z,5.78
2022-08-21T11:43:12.006Z,7.93
2022-08-21T11:49:05.413Z,5.40
2022-08-21T11:54:36.631Z,5.35
2022-08-21T11:59:58.376Z,4.93
2022-08-21T12:05:09.431Z,6.53
2022-08-21T12:10:22.062Z,5.55
2022-08-21T12:15:29.782Z,4.40
2022-08-21T12:20:57.357Z,6.82
2022-08-21T12:26:32.352Z,5.13
2022-08-21T12:31:36.140Z,5.30
2022-08-21T12:37:15.757Z,5.47
2022-08-21T12:42:32.521Z,5.07
2022-08-21T12:48:05.232Z,5.03
2022-08-21T12:53:18.513Z,6.30
2022-08-21T12:58:25.806Z,5.20
2022-08-21T13:03:29.312Z,5.82
2022-08-21T13:08:40.899Z,5.10
2022-08-21T13:13:51.526Z,6.50
2022-08-21T13:19:09.580Z,8.20
2022-08-21T13:24:45.668Z,6.53
2022-08-21T13:29:53.297Z,5.47
2022-08-21T13:34:58.819Z,6.90
2022-08-21T13:40:01.896Z,2.97
2022-08-21T13:45:05.483Z,3.13
2022-08-21T13:50:09.860Z,3.40
2022-08-21T13:55:18.472Z,2.72
2022-08-21T14:00:29.354Z,2.40
2022-08-21T14:05:36.448Z,3.72
2022-08-21T14:10:49.268Z,3.10
2022-08-21T14:16:02.523Z,3.83
2022-08-21T14:21:10.658Z,3.63
2022-08-21T14:26:13.607Z,2.85
2022-08-21T14:31:21.544Z,2.72
2022-08-21T14:36:25.530Z,2.15
2022-08-21T14:41:30.417Z,3.97
2022-08-21T14:46:36.513Z,2.65
2022-08-21T14:51:54.351Z,4.75
2022-08-21T14:57:00.981Z,3.35
2022-08-21T15:02:07.726Z,2.67
2022-08-21T15:07:10.715Z,1.55
2022-08-21T15:12:15.889Z,1.75
2022-08-21T15:17:18.789Z,2.75
2022-08-21T15:22:27.910Z,1.65
2022-08-21T15:27:32.379Z,1.45
2022-08-21T15:32:35.215Z,3.17
2022-08-21T15:37:38.387Z,2.25
2022-08-21T15:42:43.018Z,1.50
2022-08-21T15:47:49.020Z,1.98
2022-08-21T15:52:52.880Z,1.65
2022-08-21T15:57:59.931Z,1.85
2022-08-21T16:03:07.384Z,2.90
2022-08-21T16:08:11.876Z,2.85
2022-08-21T16:13:32.695Z,2.50
2022-08-21T16:18:35.595Z,2.78
2022-08-21T16:23:40.379Z,6.25
2022-08-21T16:28:46.461Z,3.03
2022-08-21T16:33:57.834Z,3.70
2022-08-21T16:39:02.063Z,6.90
2022-08-21T16:44:06.900Z,6.50
2022-08-21T16:49:10.296Z,4.32
2022-08-21T16:54:14.047Z,5.13
2022-08-21T16:59:17.755Z,4.78
2022-08-21T17:04:21.032Z,5.32
2022-08-21T17:09:23.953Z,6.32
2022-08-21T17:14:26.805Z,4.43
2022-08-21T17:19:29.700Z,4.63
2022-08-21T17:24:32.772Z,4.50
2022-08-21T17:29:40.164Z,5.78
2022-08-21T17:34:43.186Z,4.60
2022-08-21T17:39:46.090Z,4.78
2022-08-21T17:44:49.174Z,4.38
2022-08-21T17:49:52.054Z,4.57
2022-08-21T17:54:55.199Z,4.30
2022-08-21T17:59:58.643Z,4.03
2022-08-21T18:05:01.936Z,4.72
2022-08-21T18:10:13.572Z,5.50
2022-08-21T18:15:19.513Z,4.60
2022-08-21T18:20:24.610Z,4.30
2022-08-21T18:25:28.855Z,4.32
2022-08-21T18:30:34.556Z,5.47
2022-08-21T18:35:38.150Z,7.88
2022-08-21T18:40:55.127Z,4.63
2022-08-21T18:45:58.697Z,4.82
2022-08-21T18:51:01.890Z,2.97
2022-08-21T18:56:07.110Z,3.22
2022-08-21T19:01:18.321Z,2.53
2022-08-21T19:06:21.323Z,2.72
2022-08-21T19:11:26.083Z,3.92
2022-08-21T19:16:29.299Z,3.55
2022-08-21T19:21:32.470Z,4.15
2022-08-21T19:26:35.724Z,5.03
2022-08-21T19:31:44.695Z,5.82
2022-08-21T19:36:48.043Z,6.07
2022-08-21T19:41:56.776Z,4.93
2022-08-21T19:47:00.788Z,4.72
2022-08-21T19:52:13.164Z,4.63
2022-08-21T19:57:17.479Z,4.15
2022-08-21T20:02:20.546Z,5.22
2022-08-21T20:07:26.543Z,3.40
2022-08-21T20:12:30.252Z,4.28
2022-08-21T20:17:33.077Z,4.05
2022-08-21T20:22:36.541Z,3.45
2022-08-21T20:33:03.235Z,5.65
2022-08-21T20:38:06.544Z,5.03
2022-08-21T20:43:12.658Z,5.22
2022-08-21T20:48:28.531Z,4.78
2022-08-21T20:54:01.166Z,4.38
2022-08-21T20:59:33.739Z,4.40
2022-08-21T21:04:56.074Z,4.05
2022-08-21T21:10:05.999Z,4.57
2022-08-21T21:15:26.016Z,4.10
2022-08-21T21:20:46.980Z,3.80
2022-08-21T21:26:23.917Z,3.90
2022-08-21T21:31:32.621Z,4.47
2022-08-21T21:36:58.906Z,4.00
2022-08-21T21:42:37.343Z,4.78
2022-08-21T21:47:56.071Z,3.78
2022-08-21T21:53:36.111Z,4.40
2022-08-21T21:59:25.981Z,5.53
2022-08-21T22:04:53.856Z,5.70
2022-08-21T22:10:19.864Z,5.03
2022-08-21T22:15:33.303Z,3.95
2022-08-21T22:20:56.186Z,3.35
2022-08-21T22:26:12.773Z,4.47
2022-08-21T22:31:34.633Z,4.13
2022-08-21T22:42:20.899Z,4.18
2022-08-21T22:47:33.735Z,8.52
2022-08-21T22:52:44.885Z,5.78
2022-08-21T22:57:48.155Z,7.43
2022-08-21T23:02:57.010Z,5.63
2022-08-21T23:08:24.019Z,9.15
2022-08-21T23:13:37.748Z,5.63
2022-08-21T23:19:19.425Z,5.78
2022-08-21T23:24:33.674Z,4.80
2022-08-21T23:30:01.437Z,4.97
2022-08-21T23:35:59.769Z,6.55
2022-08-21T23:41:34.443Z,5.47
2022-08-21T23:46:50.581Z,9.73
2022-08-21T23:52:27.390Z,6.88
2022-08-21T23:57:48.944Z,5.03
